createdAt,value
2022-08-05T00:01:36.316Z,8.53
2022-08-05T00:04:18.718Z,7.90
2022-08-05T00:06:47.265Z,8.40
2022-08-05T00:09:19.660Z,7.10
2022-08-05T00:11:49.393Z,4.23
2022-08-05T00:14:27.722Z,4.83
2022-08-05T00:16:56.208Z,6.37
2022-08-05T00:19:23.278Z,4.63
2022-08-05T00:21:52.002Z,2.90
2022-08-05T00:24:24.796Z,5.33
2022-08-05T00:26:57.319Z,5.70
2022-08-05T00:29:25.975Z,5.80
2022-08-05T00:32:12.219Z,5.30
2022-08-05T00:35:04.726Z,5.30
2022-08-05T00:37:50.464Z,5.00
2022-08-05T00:40:17.834Z,4.83
2022-08-05T00:42:55.368Z,4.23
2022-08-05T00:45:27.982Z,3.93
2022-08-05T00:48:05.880Z,3.00
2022-08-05T00:50:32.933Z,3.60
2022-08-05T00:52:59.601Z,3.27
2022-08-05T00:55:42.249Z,3.43
2022-08-05T00:58:16.808Z,3.27
2022-08-05T01:00:47.442Z,2.50
2022-08-05T01:03:23.012Z,3.30
2022-08-05T01:05:51.432Z,2.90
2022-08-05T01:08:40.930Z,3.30
2022-08-05T01:11:33.588Z,3.00
2022-08-05T01:14:18.107Z,3.23
2022-08-05T01:17:08.484Z,2.60
2022-08-05T01:20:03.060Z,2.60
2022-08-05T01:22:58.579Z,2.53
2022-08-05T01:25:53.654Z,2.20
2022-08-05T01:28:35.514Z,2.43
2022-08-05T01:31:21.456Z,3.10
2022-08-05T01:34:09.621Z,2.40
2022-08-05T01:36:51.842Z,2.73
2022-08-05T01:39:45.905Z,2.37
2022-08-05T01:42:09.665Z,2.47
2022-08-05T01:44:37.416Z,2.27
2022-08-05T01:47:05.192Z,2.50
2022-08-05T01:50:00.235Z,2.53
2022-08-05T01:52:25.245Z,2.70
2022-08-05T01:54:56.730Z,2.40
2022-08-05T01:58:11.972Z,2.20
2022-08-05T02:00:15.300Z,3.00
2022-08-05T02:02:53.617Z,2.47
2022-08-05T02:05:24.881Z,2.43
2022-08-05T02:08:01.324Z,2.70
2022-08-05T02:10:35.130Z,2.67
2022-08-05T02:13:16.914Z,2.53
2022-08-05T02:15:50.298Z,2.40
2022-08-05T02:18:34.202Z,2.27
2022-08-05T02:21:14.986Z,2.40
2022-08-05T02:23:45.991Z,2.93
2022-08-05T02:26:17.218Z,2.90
2022-08-05T02:28:45.967Z,2.47
2022-08-05T02:31:20.953Z,2.57
2022-08-05T02:33:57.289Z,2.50
2022-08-05T02:36:27.347Z,2.53
2022-08-05T02:38:56.414Z,2.93
2022-08-05T02:41:28.811Z,2.80
2022-08-05T02:44:13.406Z,3.07
2022-08-05T02:46:58.945Z,2.77
2022-08-05T02:49:36.597Z,2.87
2022-08-05T02:52:07.896Z,3.10
2022-08-05T02:54:37.652Z,4.10
2022-08-05T02:58:10.178Z,3.00
2022-08-05T03:00:01.746Z,2.40
2022-08-05T03:02:38.802Z,3.50
2022-08-05T03:05:09.252Z,3.67
2022-08-05T03:08:00.526Z,3.10
2022-08-05T03:10:25.742Z,3.17
2022-08-05T03:12:54.161Z,2.93
2022-08-05T03:15:23.804Z,2.97
2022-08-05T03:17:54.009Z,3.00
2022-08-05T03:20:22.463Z,3.57
2022-08-05T03:22:50.969Z,3.37
2022-08-05T03:25:33.115Z,3.17
2022-08-05T03:28:08.788Z,2.73
2022-08-05T03:30:38.300Z,2.63
2022-08-05T03:33:08.683Z,2.93
2022-08-05T03:35:40.774Z,3.00
2022-08-05T03:38:12.557Z,2.90
2022-08-05T03:40:45.065Z,2.70
2022-08-05T03:43:58.591Z,3.50
2022-08-05T03:46:02.072Z,3.10
2022-08-05T03:48:29.976Z,2.70
2022-08-05T03:52:36.629Z,2.87
2022-08-05T03:55:50.444Z,3.67
2022-08-05T03:57:16.433Z,3.23
2022-08-05T03:59:54.461Z,3.33
2022-08-05T04:02:38.311Z,3.47
2022-08-05T04:05:09.570Z,3.53
2022-08-05T04:07:57.205Z,2.97
2022-08-05T04:10:27.626Z,2.77
2022-08-05T04:12:56.378Z,2.77
2022-08-05T04:15:27.817Z,2.77
2022-08-05T04:18:03.721Z,2.90
2022-08-05T04:20:33.920Z,3.83
2022-08-05T04:23:00.591Z,3.00
2022-08-05T04:25:56.714Z,3.17
2022-08-05T04:28:14.930Z,2.80
2022-08-05T04:30:42.879Z,3.30
2022-08-05T04:33:09.759Z,3.53
2022-08-05T04:36:16.356Z,2.97
2022-08-05T04:38:39.538Z,3.03
2022-08-05T04:41:09.591Z,3.40
2022-08-05T04:43:38.056Z,3.27
2022-08-05T04:46:13.383Z,3.30
2022-08-05T04:48:40.754Z,3.20
2022-08-05T04:51:11.077Z,3.17
2022-08-05T04:53:39.113Z,3.70
2022-08-05T04:56:33.535Z,3.13
2022-08-05T04:58:55.973Z,3.43
2022-08-05T05:02:08.386Z,3.20
2022-08-05T05:04:10.131Z,3.73
2022-08-05T05:06:44.287Z,3.70
2022-08-05T05:09:17.335Z,3.30
2022-08-05T05:11:54.524Z,3.50
2022-08-05T05:14:28.106Z,3.40
2022-08-05T05:17:02.022Z,3.23
2022-08-05T05:19:37.249Z,3.37
2022-08-05T05:22:24.382Z,3.60
2022-08-05T05:24:59.831Z,3.33
2022-08-05T05:27:41.707Z,3.23
2022-08-05T05:30:31.203Z,2.97
2022-08-05T05:33:03.814Z,4.13
2022-08-05T05:35:44.344Z,3.10
2022-08-05T05:38:13.194Z,3.93
2022-08-05T05:40:50.089Z,4.23
2022-08-05T05:43:27.851Z,4.00
2022-08-05T05:46:13.808Z,2.77
2022-08-05T05:48:44.534Z,3.33
2022-08-05T05:51:15.226Z,3.37
2022-08-05T05:53:54.231Z,3.83
2022-08-05T05:56:32.197Z,3.90
2022-08-05T05:59:03.503Z,3.93
2022-08-05T06:01:37.463Z,3.30
2022-08-05T06:04:11.870Z,4.13
2022-08-05T06:06:47.670Z,4.13
2022-08-05T06:09:26.720Z,3.57
2022-08-05T06:12:04.249Z,3.07
2022-08-05T06:14:31.588Z,3.37
2022-08-05T06:16:59.175Z,2.97
2022-08-05T06:19:34.844Z,3.20
2022-08-05T06:22:04.107Z,3.50
2022-08-05T06:24:31.977Z,3.43
2022-08-05T06:26:58.682Z,3.07
2022-08-05T06:29:49.455Z,3.40
2022-08-05T06:32:26.066Z,3.60
2022-08-05T06:34:57.355Z,3.93
2022-08-05T06:37:56.788Z,3.90
2022-08-05T06:40:20.739Z,3.67
2022-08-05T06:42:52.335Z,4.00
2022-08-05T06:45:44.649Z,3.90
2022-08-05T06:48:44.433Z,3.70
2022-08-05T06:50:54.701Z,3.87
2022-08-05T06:53:22.744Z,3.50
2022-08-05T06:55:56.481Z,3.10
2022-08-05T06:58:35.495Z,3.33
2022-08-05T07:01:05.592Z,3.60
2022-08-05T07:03:33.583Z,3.63
2022-08-05T07:06:05.349Z,3.27
2022-08-05T07:08:37.108Z,3.30
2022-08-05T07:11:15.323Z,4.13
2022-08-05T07:14:01.959Z,3.57
2022-08-05T07:17:56.442Z,3.40
2022-08-05T07:22:27.748Z,3.27
2022-08-05T07:25:22.153Z,3.13
2022-08-05T07:27:58.123Z,3.07
2022-08-05T07:30:32.537Z,3.97
2022-08-05T07:33:01.448Z,3.13
2022-08-05T07:35:56.766Z,3.07
2022-08-05T07:38:32.835Z,2.20
2022-08-05T07:41:16.757Z,2.90
2022-08-05T07:43:49.598Z,2.80
2022-08-05T07:46:24.749Z,2.60
2022-08-05T07:49:03.953Z,3.43
2022-08-05T07:51:37.295Z,2.87
2022-08-05T07:54:08.474Z,2.53
2022-08-05T07:56:39.313Z,3.57
2022-08-05T07:59:38.886Z,4.13
2022-08-05T08:02:16.064Z,3.23
2022-08-05T08:04:45.960Z,3.20
2022-08-05T08:07:13.527Z,3.33
2022-08-05T08:09:40.708Z,3.47
2022-08-05T08:12:37.319Z,3.57
2022-08-05T08:14:54.351Z,3.87
2022-08-05T08:17:21.483Z,2.90
2022-08-05T08:20:23.383Z,3.53
2022-08-05T08:22:36.004Z,3.73
2022-08-05T08:25:03.936Z,3.17
2022-08-05T08:27:47.321Z,3.50
2022-08-05T08:30:29.394Z,3.40
2022-08-05T08:33:04.610Z,3.97
2022-08-05T08:35:40.956Z,2.90
2022-08-05T08:38:08.647Z,3.50
2022-08-05T08:40:50.559Z,3.20
2022-08-05T08:44:54.756Z,3.97
2022-08-05T08:46:10.116Z,3.47
2022-08-05T08:49:07.810Z,3.27
2022-08-05T08:52:06.036Z,3.43
2022-08-05T08:54:21.961Z,3.53
2022-08-05T08:56:54.344Z,3.00
2022-08-05T08:59:23.638Z,3.50
2022-08-05T09:01:57.533Z,3.63
2022-08-05T09:04:30.542Z,3.17
2022-08-05T09:06:58.364Z,3.40
2022-08-05T09:09:25.449Z,3.23
2022-08-05T09:11:55.283Z,3.60
2022-08-05T09:14:58.725Z,3.77
2022-08-05T09:17:16.066Z,3.20
2022-08-05T09:20:05.431Z,3.20
2022-08-05T09:23:19.591Z,3.40
2022-08-05T09:26:01.346Z,3.03
2022-08-05T09:28:33.176Z,8.43
2022-08-05T09:31:43.198Z,3.47
2022-08-05T09:34:05.595Z,2.83
2022-08-05T09:36:54.493Z,2.80
2022-08-05T09:39:24.566Z,3.63
2022-08-05T09:42:07.780Z,3.87
2022-08-05T09:44:42.243Z,2.80
2022-08-05T09:47:12.723Z,3.43
2022-08-05T09:50:03.299Z,3.03
2022-08-05T09:52:36.037Z,2.77
2022-08-05T09:55:56.675Z,2.87
2022-08-05T09:57:58.533Z,2.90
2022-08-05T10:00:26.773Z,3.00
2022-08-05T10:02:54.892Z,2.60
2022-08-05T10:05:27.521Z,2.90
2022-08-05T10:08:35.913Z,2.67
2022-08-05T10:10:50.298Z,2.53
2022-08-05T10:13:31.780Z,2.77
2022-08-05T10:16:37.736Z,2.47
2022-08-05T10:19:10.023Z,2.50
2022-08-05T10:21:41.101Z,3.60
2022-08-05T10:24:15.494Z,2.60
2022-08-05T10:26:48.970Z,2.63
2022-08-05T10:29:23.358Z,3.13
2022-08-05T10:32:53.761Z,2.83
2022-08-05T10:34:40.734Z,3.00
2022-08-05T10:37:08.123Z,2.80
2022-08-05T10:40:03.280Z,3.73
2022-08-05T10:42:33.704Z,3.53
2022-08-05T10:45:02.222Z,3.33
2022-08-05T10:48:30.064Z,3.50
2022-08-05T10:51:05.489Z,2.33
2022-08-05T10:53:55.143Z,2.53
2022-08-05T10:56:25.940Z,2.30
2022-08-05T10:58:58.679Z,2.50
2022-08-05T11:01:55.012Z,2.60
2022-08-05T11:04:31.792Z,2.37
2022-08-05T11:07:06.469Z,2.50
2022-08-05T11:09:47.255Z,2.50
2022-08-05T11:12:42.186Z,2.93
2022-08-05T11:15:20.095Z,2.23
2022-08-05T11:17:57.014Z,2.43
2022-08-05T11:20:44.305Z,1.93
2022-08-05T11:23:33.557Z,2.37
2022-08-05T11:26:28.466Z,2.33
2022-08-05T11:28:56.653Z,3.17
2022-08-05T11:31:58.023Z,2.90
2022-08-05T11:34:18.095Z,3.37
2022-08-05T11:36:53.021Z,2.80
2022-08-05T11:39:55.292Z,2.40
2022-08-05T11:42:28.323Z,2.20
2022-08-05T11:45:03.418Z,2.07
2022-08-05T11:47:49.639Z,2.30
2022-08-05T11:50:18.034Z,2.13
2022-08-05T11:52:48.811Z,2.83
2022-08-05T11:55:16.348Z,2.57
2022-08-05T11:58:10.567Z,2.60
2022-08-05T12:00:37.992Z,3.20
2022-08-05T12:03:28.859Z,2.33
2022-08-05T12:06:05.922Z,2.30
2022-08-05T12:08:49.762Z,2.20
2022-08-05T12:11:28.313Z,2.10
2022-08-05T12:14:08.389Z,2.03
2022-08-05T12:16:45.417Z,1.93
2022-08-05T12:20:27.271Z,2.00
2022-08-05T12:22:01.503Z,2.27
2022-08-05T12:24:28.165Z,2.10
2022-08-05T12:26:56.918Z,2.53
2022-08-05T12:29:26.765Z,1.90
2022-08-05T12:31:58.425Z,2.10
2022-08-05T12:34:32.220Z,2.13
2022-08-05T12:37:03.448Z,2.70
2022-08-05T12:39:37.429Z,2.40
2022-08-05T12:42:17.678Z,2.40
2022-08-05T12:44:45.772Z,2.87
2022-08-05T12:47:17.052Z,2.87
2022-08-05T12:50:02.493Z,2.57
2022-08-05T12:52:39.625Z,3.50
2022-08-05T12:55:25.311Z,3.07
2022-08-05T12:58:50.693Z,2.67
2022-08-05T13:02:03.551Z,2.10
2022-08-05T13:03:39.010Z,3.10
2022-08-05T13:06:13.571Z,2.90
2022-08-05T13:08:40.493Z,3.00
2022-08-05T13:11:18.009Z,3.00
2022-08-05T13:14:35.921Z,2.87
2022-08-05T13:17:16.179Z,3.00
2022-08-05T13:20:24.143Z,2.50
2022-08-05T13:22:53.880Z,3.13
2022-08-05T13:25:21.979Z,3.00
2022-08-05T13:28:10.593Z,2.97
2022-08-05T13:30:38.997Z,3.07
2022-08-05T13:33:05.836Z,3.43
2022-08-05T13:35:47.229Z,2.93
2022-08-05T13:38:24.402Z,3.03
2022-08-05T13:40:58.695Z,2.87
2022-08-05T13:43:44.047Z,3.90
2022-08-05T13:46:13.767Z,2.73
2022-08-05T13:48:58.295Z,3.30
2022-08-05T13:51:40.307Z,3.10
2022-08-05T13:54:12.498Z,3.67
2022-08-05T13:56:44.982Z,3.37
2022-08-05T13:59:24.125Z,3.30
2022-08-05T14:01:58.016Z,3.27
2022-08-05T14:04:51.344Z,2.90
2022-08-05T14:08:00.139Z,4.80
2022-08-05T14:10:18.708Z,4.90
2022-08-05T14:12:56.957Z,2.60
2022-08-05T14:16:08.954Z,2.20
2022-08-05T14:18:13.137Z,2.87
2022-08-05T14:20:46.897Z,2.63
2022-08-05T14:23:23.853Z,3.27
2022-08-05T14:25:54.050Z,4.40
2022-08-05T14:28:26.300Z,2.80
2022-08-05T14:30:54.726Z,2.83
2022-08-05T14:33:23.244Z,5.30
2022-08-05T14:35:51.918Z,2.97
2022-08-05T14:38:31.735Z,2.53
2022-08-05T14:41:05.799Z,3.77
2022-08-05T14:44:00.034Z,2.00
2022-08-05T14:46:29.603Z,2.47
2022-08-05T14:48:59.482Z,2.60
2022-08-05T14:51:31.183Z,2.37
2022-08-05T14:54:26.114Z,2.53
2022-08-05T14:56:46.597Z,2.67
2022-08-05T14:59:14.110Z,2.30
2022-08-05T15:01:49.060Z,2.50
2022-08-05T15:04:17.061Z,2.73
2022-08-05T15:06:49.464Z,2.63
2022-08-05T15:09:19.424Z,2.63
2022-08-05T15:12:05.186Z,2.37
2022-08-05T15:14:35.680Z,2.60
2022-08-05T15:17:09.928Z,2.60
2022-08-05T15:19:55.988Z,2.53
2022-08-05T15:22:27.197Z,2.50
2022-08-05T15:24:56.268Z,2.80
2022-08-05T15:27:25.815Z,2.60
2022-08-05T15:29:54.277Z,2.60
2022-08-05T15:32:28.650Z,4.70
2022-08-05T15:34:56.633Z,2.40
2022-08-05T15:38:32.411Z,2.50
2022-08-05T15:41:00.148Z,2.37
2022-08-05T15:43:12.445Z,2.50
2022-08-05T15:45:45.977Z,6.90
2022-08-05T15:48:14.131Z,8.77
2022-08-05T15:50:41.637Z,2.90
2022-08-05T15:53:12.685Z,2.93
2022-08-05T15:56:03.110Z,2.67
2022-08-05T15:58:29.903Z,3.73
2022-08-05T16:01:18.370Z,2.67
2022-08-05T16:03:48.478Z,2.30
2022-08-05T16:06:15.924Z,3.60
2022-08-05T16:08:47.718Z,2.17
2022-08-05T16:11:17.113Z,2.17
2022-08-05T16:13:44.034Z,2.33
2022-08-05T16:16:12.104Z,3.10
2022-08-05T16:18:51.817Z,4.40
2022-08-05T16:21:20.543Z,2.30
2022-08-05T16:24:07.645Z,2.10
2022-08-05T16:26:55.209Z,2.27
2022-08-05T16:29:22.943Z,1.60
2022-08-05T16:31:57.406Z,2.97
2022-08-05T16:34:25.495Z,1.80
2022-08-05T16:36:53.637Z,2.13
2022-08-05T16:39:20.790Z,1.87
2022-08-05T16:42:14.867Z,1.90
2022-08-05T16:44:34.728Z,1.60
2022-08-05T16:47:04.534Z,2.30
2022-08-05T16:49:31.327Z,1.37
2022-08-05T16:51:58.026Z,1.80
2022-08-05T16:54:31.911Z,1.80
2022-08-05T16:57:00.035Z,1.83
2022-08-05T16:59:27.761Z,1.77
2022-08-05T17:01:57.505Z,1.60
2022-08-05T17:04:26.976Z,2.00
2022-08-05T17:06:55.651Z,1.63
2022-08-05T17:09:27.731Z,1.67
2022-08-05T17:11:59.869Z,1.57
2022-08-05T17:14:36.633Z,1.70
2022-08-05T17:17:05.725Z,1.93
2022-08-05T17:19:32.395Z,2.23
2022-08-05T17:22:00.918Z,2.03
2022-08-05T17:24:39.092Z,1.40
2022-08-05T17:27:10.238Z,1.67
2022-08-05T17:29:41.045Z,1.90
2022-08-05T17:32:17.206Z,1.80
2022-08-05T17:34:47.634Z,1.30
2022-08-05T17:37:39.697Z,1.50
2022-08-05T17:40:05.402Z,1.40
2022-08-05T17:42:41.450Z,1.77
2022-08-05T17:45:20.875Z,1.37
2022-08-05T17:47:54.021Z,1.70
2022-08-05T17:50:28.359Z,1.57
2022-08-05T17:52:59.066Z,1.50
2022-08-05T17:55:34.477Z,1.40
2022-08-05T17:58:09.798Z,1.60
2022-08-05T18:00:44.962Z,1.77
2022-08-05T18:03:39.199Z,1.80
2022-08-05T18:06:05.769Z,1.33
2022-08-05T18:08:33.735Z,1.70
2022-08-05T18:11:03.151Z,1.23
2022-08-05T18:13:36.728Z,1.30
2022-08-05T18:16:13.650Z,1.27
2022-08-05T18:18:41.109Z,1.80
2022-08-05T18:21:13.293Z,1.83
2022-08-05T18:23:47.938Z,1.47
2022-08-05T18:26:14.689Z,1.63
2022-08-05T18:28:46.555Z,1.33
2022-08-05T18:31:15.735Z,1.97
2022-08-05T18:33:46.924Z,2.13
2022-08-05T18:36:17.315Z,1.47
2022-08-05T18:38:46.779Z,1.30
2022-08-05T18:41:55.543Z,1.80
2022-08-05T18:44:06.670Z,1.47
2022-08-05T18:46:34.748Z,1.37
2022-08-05T18:49:21.242Z,1.70
2022-08-05T18:52:08.571Z,1.27
2022-08-05T18:54:35.894Z,1.23
2022-08-05T18:57:09.529Z,1.77
2022-08-05T18:59:43.838Z,1.67
2022-08-05T19:02:28.950Z,1.30
2022-08-05T19:05:03.207Z,1.40
2022-08-05T19:07:47.783Z,1.30
2022-08-05T19:10:16.084Z,1.37
2022-08-05T19:12:46.211Z,1.07
2022-08-05T19:15:58.228Z,1.33
2022-08-05T19:18:10.200Z,1.30
2022-08-05T19:20:41.753Z,1.30
2022-08-05T19:24:05.770Z,2.07
2022-08-05T19:26:01.011Z,1.67
2022-08-05T19:28:28.931Z,1.50
2022-08-05T19:30:55.937Z,1.30
2022-08-05T19:33:36.327Z,1.90
2022-08-05T19:36:07.163Z,1.33
2022-08-05T19:38:36.293Z,1.40
2022-08-05T19:41:07.212Z,1.40
2022-08-05T19:44:05.445Z,1.40
2022-08-05T19:46:30.160Z,1.47
2022-08-05T19:49:01.082Z,1.40
2022-08-05T19:52:05.327Z,1.47
2022-08-05T19:54:25.490Z,2.10
2022-08-05T19:56:56.176Z,1.20
2022-08-05T20:00:00.448Z,1.30
2022-08-05T20:02:09.836Z,1.47
2022-08-05T20:04:37.817Z,1.50
2022-08-05T20:07:13.390Z,1.63
2022-08-05T20:09:54.616Z,1.50
2022-08-05T20:12:24.927Z,1.33
2022-08-05T20:14:53.069Z,1.67
2022-08-05T20:17:23.428Z,1.47
2022-08-05T20:19:56.858Z,1.47
2022-08-05T20:22:26.798Z,1.70
2022-08-05T20:24:56.981Z,1.40
2022-08-05T20:27:27.290Z,1.57
2022-08-05T20:30:10.187Z,1.70
2022-08-05T20:32:36.919Z,1.87
2022-08-05T20:35:11.789Z,1.40
2022-08-05T20:38:08.061Z,1.43
2022-08-05T20:40:26.629Z,1.40
2022-08-05T20:42:53.721Z,1.60
2022-08-05T20:45:56.043Z,1.40
2022-08-05T20:48:13.412Z,1.50
2022-08-05T20:50:45.538Z,1.87
2022-08-05T20:53:15.775Z,1.50
2022-08-05T20:55:56.429Z,1.73
2022-08-05T20:58:29.733Z,1.70
2022-08-05T21:00:57.066Z,1.80
2022-08-05T21:03:23.858Z,1.77
2022-08-05T21:05:54.784Z,1.70
2022-08-05T21:08:42.086Z,1.60
2022-08-05T21:11:11.844Z,1.97
2022-08-05T21:13:47.959Z,1.60
2022-08-05T21:16:23.123Z,2.13
2022-08-05T21:18:57.357Z,2.00
2022-08-05T21:21:39.034Z,1.97
2022-08-05T21:24:07.209Z,2.03
2022-08-05T21:26:33.989Z,1.90
2022-08-05T21:29:03.511Z,2.40
2022-08-05T21:31:40.860Z,2.00
2022-08-05T21:34:10.368Z,1.70
2022-08-05T21:36:37.521Z,2.00
2022-08-05T21:39:04.341Z,1.77
2022-08-05T21:41:34.307Z,1.90
2022-08-05T21:44:04.344Z,2.10
2022-08-05T21:46:34.470Z,1.87
2022-08-05T21:49:07.431Z,1.70
2022-08-05T21:52:22.675Z,1.47
2022-08-05T21:54:27.925Z,1.80
2022-08-05T21:57:04.857Z,1.50
2022-08-05T21:59:54.507Z,1.50
2022-08-05T22:02:28.278Z,1.60
2022-08-05T22:04:58.121Z,1.80
2022-08-05T22:07:40.410Z,1.87
2022-08-05T22:10:14.593Z,1.70
2022-08-05T22:12:45.013Z,1.60
2022-08-05T22:16:02.600Z,1.50
2022-08-05T22:18:06.020Z,1.90
2022-08-05T22:20:35.698Z,2.30
2022-08-05T22:23:24.841Z,1.70
2022-08-05T22:26:30.375Z,1.73
2022-08-05T22:28:57.081Z,1.50
2022-08-05T22:31:25.100Z,1.70
2022-08-05T22:34:01.391Z,1.70
2022-08-05T22:36:29.148Z,1.87
2022-08-05T22:38:56.787Z,1.50
2022-08-05T22:41:26.200Z,1.67
2022-08-05T22:44:11.993Z,1.93
2022-08-05T22:46:40.675Z,1.53
2022-08-05T22:49:12.072Z,1.60
2022-08-05T22:52:04.938Z,1.53
2022-08-05T22:54:26.364Z,1.63
2022-08-05T22:56:54.503Z,1.67
2022-08-05T22:59:46.537Z,1.57
2022-08-05T23:02:09.060Z,1.60
2022-08-05T23:04:36.363Z,2.03
2022-08-05T23:07:04.770Z,1.70
2022-08-05T23:09:54.665Z,1.80
2022-08-05T23:12:23.891Z,1.50
2022-08-05T23:14:51.313Z,1.80
2022-08-05T23:17:34.466Z,1.60
2022-08-05T23:20:07.461Z,1.80
2022-08-05T23:22:43.813Z,1.57
2022-08-05T23:25:17.055Z,1.57
2022-08-05T23:28:03.495Z,1.70
2022-08-05T23:30:40.560Z,1.80
2022-08-05T23:33:16.309Z,1.90
2022-08-05T23:35:52.445Z,1.70
2022-08-05T23:38:23.325Z,1.70
2022-08-05T23:40:52.722Z,1.73
2022-08-05T23:43:25.010Z,1.67
2022-08-05T23:46:20.735Z,1.40
2022-08-05T23:48:59.296Z,1.93
2022-08-05T23:51:53.656Z,1.23
2022-08-05T23:54:30.299Z,1.57
2022-08-05T23:57:03.791Z,1.70
2022-08-05T23:59:37.701Z,1.63
